createdAt,value
2023-01-10T00:10:48.317Z,4.90
2023-01-10T00:13:26.466Z,2.70
2023-01-10T00:15:56.023Z,4.80
2023-01-10T00:20:50.668Z,4.90
2023-01-10T00:23:18.589Z,4.80
2023-01-10T00:25:46.159Z,5.00
2023-01-10T00:28:23.604Z,4.80
2023-01-10T00:31:01.224Z,4.70
2023-01-10T00:33:31.788Z,5.00
2023-01-10T00:36:05.392Z,4.80
2023-01-10T00:38:33.819Z,4.80
2023-01-10T00:58:33.049Z,4.90
2023-01-10T01:03:27.634Z,4.80
2023-01-10T01:05:54.606Z,4.90
2023-01-10T01:13:20.047Z,4.80
2023-01-10T01:15:47.569Z,4.90
2023-01-10T01:18:21.536Z,5.30
2023-01-10T01:20:53.764Z,4.30
2023-01-10T01:23:20.928Z,4.80
2023-01-10T01:25:51.851Z,4.80
2023-01-10T01:33:14.662Z,4.80
2023-01-10T01:35:48.048Z,5.00
2023-01-10T01:38:16.344Z,4.90
2023-01-10T01:43:25.528Z,5.00
2023-01-10T01:45:53.549Z,5.00
2023-01-10T01:48:32.671Z,4.90
2023-01-10T01:51:11.843Z,4.90
2023-01-10T01:53:58.163Z,5.20
2023-01-10T01:56:52.258Z,5.20
2023-01-10T01:59:26.391Z,5.10
2023-01-10T02:01:58.353Z,5.20
2023-01-10T02:04:33.443Z,5.10
2023-01-10T02:07:00.436Z,5.20
2023-01-10T02:09:36.574Z,5.30
2023-01-10T02:12:03.775Z,5.20
2023-01-10T02:14:32.103Z,5.20
2023-01-10T02:16:59.029Z,5.00
2023-01-10T02:20:01.677Z,5.00
2023-01-10T02:23:15.352Z,5.20
2023-01-10T02:26:23.437Z,5.10
2023-01-10T02:29:27.587Z,5.00
2023-01-10T02:32:09.360Z,5.00
2023-01-10T02:35:00.932Z,5.00
2023-01-10T02:38:01.002Z,5.10
2023-01-10T02:40:53.192Z,5.10
2023-01-10T02:43:27.224Z,5.10
2023-01-10T02:46:11.505Z,5.00
2023-01-10T02:48:38.576Z,5.20
2023-01-10T02:51:25.300Z,5.10
2023-01-10T02:54:10.580Z,5.00
2023-01-10T02:56:55.496Z,5.00
2023-01-10T02:59:54.485Z,5.10
2023-01-10T03:02:34.761Z,5.10
2023-01-10T03:05:49.736Z,5.00
2023-01-10T03:08:53.926Z,5.00
2023-01-10T03:11:39.992Z,5.00
2023-01-10T03:14:28.847Z,5.40
2023-01-10T03:17:04.746Z,5.20
2023-01-10T03:19:40.340Z,5.20
2023-01-10T03:22:08.941Z,5.20
2023-01-10T03:24:48.681Z,5.20
2023-01-10T03:27:43.987Z,5.10
2023-01-10T03:30:52.768Z,5.00
2023-01-10T03:33:28.459Z,4.90
2023-01-10T03:38:54.286Z,5.00
2023-01-10T03:41:58.471Z,4.80
2023-01-10T03:44:51.512Z,4.90
2023-01-10T03:47:45.577Z,4.80
2023-01-10T03:50:18.765Z,4.70
2023-01-10T03:52:46.914Z,4.80
2023-01-10T03:55:19.521Z,4.90
2023-01-10T04:00:15.283Z,4.80
2023-01-10T04:05:11.660Z,5.30
2023-01-10T04:07:38.777Z,4.70
2023-01-10T04:10:06.802Z,4.80
2023-01-10T04:15:01.549Z,4.80
2023-01-10T04:17:28.576Z,4.80
2023-01-10T04:19:55.594Z,4.90
2023-01-10T04:29:47.514Z,4.70
2023-01-10T04:42:04.272Z,4.70
2023-01-10T04:44:31.261Z,4.70
2023-01-10T04:54:22.068Z,4.70
2023-01-10T05:04:11.877Z,4.90
2023-01-10T05:09:09.234Z,4.60
2023-01-10T05:14:03.788Z,4.70
2023-01-10T05:23:52.977Z,4.80
2023-01-10T05:26:23.693Z,4.80
2023-01-10T05:31:20.207Z,4.60
2023-01-10T05:33:49.835Z,4.70
2023-01-10T05:36:18.173Z,4.60
2023-01-10T05:43:40.146Z,4.70
2023-01-10T05:46:07.373Z,4.60
2023-01-10T05:51:01.916Z,4.80
2023-01-10T05:55:59.387Z,4.70
2023-01-10T05:58:27.624Z,4.80
2023-01-10T06:00:56.237Z,4.70
2023-01-10T06:05:53.248Z,4.70
2023-01-10T06:10:47.707Z,4.80
2023-01-10T06:25:40.355Z,4.60
2023-01-10T06:28:12.607Z,4.60
2023-01-10T06:33:10.873Z,4.80
2023-01-10T06:50:22.986Z,4.50
2023-01-10T06:53:04.085Z,4.60
2023-01-10T06:55:32.037Z,4.60
2023-01-10T06:58:03.639Z,4.80
2023-01-10T07:03:00.428Z,4.40
2023-01-10T07:12:55.800Z,4.40
2023-01-10T07:22:54.908Z,4.60
2023-01-10T07:30:17.760Z,4.30
2023-01-10T07:40:07.957Z,4.50
2023-01-10T07:42:34.898Z,4.40
2023-01-10T07:45:01.915Z,4.60
2023-01-10T07:54:51.028Z,4.50
2023-01-10T08:09:35.408Z,4.70
2023-01-10T08:24:19.684Z,4.70
2023-01-10T08:36:36.586Z,4.70
2023-01-10T08:41:31.363Z,4.60
2023-01-10T09:01:12.913Z,4.90
2023-01-10T09:08:36.255Z,4.90
2023-01-10T09:16:00.540Z,4.80
2023-01-10T09:23:23.537Z,4.90
2023-01-10T09:25:53.986Z,5.10
2023-01-10T09:28:22.369Z,4.90
2023-01-10T09:38:16.757Z,5.00
2023-01-10T09:41:34.408Z,5.10
2023-01-10T09:44:10.290Z,5.10
2023-01-10T09:47:21.201Z,5.00
2023-01-10T09:50:23.925Z,5.00
2023-01-10T09:52:57.575Z,5.10
2023-01-10T09:55:32.806Z,5.10
2023-01-10T09:58:05.663Z,5.20
2023-01-10T10:00:50.569Z,5.30
2023-01-10T10:03:57.789Z,5.10
2023-01-10T10:08:53.333Z,5.10
2023-01-10T10:14:11.864Z,5.20
2023-01-10T10:17:14.015Z,5.20
2023-01-10T10:20:14.630Z,5.10
2023-01-10T10:23:15.373Z,5.10
2023-01-10T10:26:19.959Z,5.10
2023-01-10T10:28:57.613Z,4.90
2023-01-10T10:31:41.222Z,5.20
2023-01-10T10:39:35.244Z,4.90
2023-01-10T10:42:04.721Z,5.10
2023-01-10T10:44:52.279Z,5.30
2023-01-10T10:47:22.839Z,5.10
2023-01-10T10:49:57.213Z,5.10
2023-01-10T10:52:34.796Z,5.20
2023-01-10T10:55:05.920Z,5.20
2023-01-10T10:57:38.561Z,5.20
2023-01-10T11:00:07.836Z,5.30
2023-01-10T11:02:47.411Z,5.10
2023-01-10T11:05:27.122Z,5.20
2023-01-10T11:08:02.075Z,5.20
2023-01-10T11:13:38.103Z,5.30
2023-01-10T11:16:06.879Z,5.30
2023-01-10T11:21:19.621Z,5.20
2023-01-10T11:23:53.858Z,5.30
2023-01-10T11:26:34.647Z,5.20
2023-01-10T11:29:26.233Z,5.30
2023-01-10T11:31:56.443Z,5.10
2023-01-10T11:34:31.293Z,5.20
2023-01-10T11:37:05.143Z,5.00
2023-01-10T11:39:33.373Z,5.10
2023-01-10T11:42:25.269Z,5.20
2023-01-10T11:44:52.230Z,5.20
2023-01-10T11:49:50.168Z,5.30
2023-01-10T11:52:29.837Z,5.50
2023-01-10T11:55:00.324Z,5.50
2023-01-10T11:57:30.721Z,5.50
2023-01-10T12:00:09.017Z,5.50
2023-01-10T12:02:44.634Z,5.60
2023-01-10T12:05:21.764Z,5.50
2023-01-10T12:08:06.249Z,5.40
2023-01-10T12:10:34.819Z,5.50
2023-01-10T12:13:16.362Z,5.60
2023-01-10T12:18:12.242Z,5.40
2023-01-10T12:20:52.056Z,5.40
2023-01-10T12:23:24.028Z,5.50
2023-01-10T12:26:00.232Z,5.40
2023-01-10T12:28:36.884Z,5.40
2023-01-10T12:31:12.389Z,5.50
2023-01-10T12:33:51.620Z,5.60
2023-01-10T12:36:44.848Z,5.50
2023-01-10T12:39:28.808Z,5.70
2023-01-10T12:42:30.221Z,5.80
2023-01-10T12:45:24.951Z,5.80
2023-01-10T12:48:17.511Z,6.30
2023-01-10T12:50:51.354Z,5.90
2023-01-10T12:55:46.878Z,7.10
2023-01-10T12:58:43.094Z,6.70
2023-01-10T13:01:17.473Z,7.50
2023-01-10T13:03:53.657Z,6.50
2023-01-10T13:06:30.960Z,6.10
2023-01-10T13:09:00.431Z,5.80
2023-01-10T13:11:35.669Z,6.00
2023-01-10T13:14:05.270Z,5.90
2023-01-10T13:16:36.545Z,5.80
2023-01-10T13:19:28.015Z,5.80
2023-01-10T13:22:36.788Z,5.80
2023-01-10T13:27:34.680Z,5.60
2023-01-10T13:30:04.770Z,5.60
2023-01-10T13:32:36.427Z,5.70
2023-01-10T13:35:18.667Z,5.70
2023-01-10T13:37:53.177Z,5.70
2023-01-10T13:40:30.865Z,5.70
2023-01-10T13:43:36.883Z,5.70
2023-01-10T13:46:24.007Z,5.80
2023-01-10T13:51:21.163Z,5.60
2023-01-10T13:54:16.026Z,5.70
2023-01-10T13:56:46.171Z,5.50
2023-01-10T13:59:45.879Z,5.60
2023-01-10T14:02:29.112Z,5.60
2023-01-10T14:05:06.109Z,5.60
2023-01-10T14:07:54.966Z,5.80
2023-01-10T14:10:32.183Z,5.70
2023-01-10T14:13:09.338Z,5.70
2023-01-10T14:15:46.020Z,5.80
2023-01-10T14:18:27.531Z,5.80
2023-01-10T14:21:05.004Z,6.00
2023-01-10T14:23:42.069Z,6.10
2023-01-10T14:26:37.010Z,6.10
2023-01-10T14:29:13.859Z,6.20
2023-01-10T14:31:49.838Z,6.40
2023-01-10T14:34:29.164Z,6.30
2023-01-10T14:42:14.776Z,6.50
2023-01-10T14:45:19.560Z,6.40
2023-01-10T14:47:48.829Z,6.30
2023-01-10T14:50:32.581Z,6.30
2023-01-10T14:53:00.672Z,6.20
2023-01-10T14:58:01.439Z,6.10
2023-01-10T15:00:34.434Z,6.10
2023-01-10T15:03:04.006Z,6.10
2023-01-10T15:05:37.304Z,6.20
2023-01-10T15:08:31.389Z,6.10
2023-01-10T15:11:05.745Z,6.00
2023-01-10T15:13:51.919Z,6.10
2023-01-10T15:16:24.406Z,5.80
2023-01-10T15:21:22.189Z,5.90
2023-01-10T15:26:27.989Z,5.70
2023-01-10T15:29:22.454Z,5.90
2023-01-10T15:34:26.924Z,5.70
2023-01-10T15:37:00.926Z,5.80
2023-01-10T15:39:35.481Z,5.70
2023-01-10T15:42:08.628Z,5.60
2023-01-10T15:44:39.982Z,5.80
2023-01-10T15:47:36.866Z,5.70
2023-01-10T15:50:38.816Z,5.60
2023-01-10T15:53:11.422Z,5.50
2023-01-10T15:58:31.523Z,5.60
2023-01-10T16:01:00.058Z,5.50
2023-01-10T16:03:34.868Z,5.50
2023-01-10T16:06:04.825Z,5.50
2023-01-10T16:08:35.195Z,5.50
2023-01-10T16:11:07.618Z,5.60
2023-01-10T16:13:36.937Z,5.60
2023-01-10T16:16:08.931Z,5.60
2023-01-10T16:21:06.065Z,5.50
2023-01-10T16:23:35.089Z,5.50
2023-01-10T16:26:06.833Z,5.60
2023-01-10T16:28:37.990Z,5.60
2023-01-10T16:31:06.849Z,5.40
2023-01-10T16:36:04.577Z,5.60
2023-01-10T16:38:31.555Z,5.50
2023-01-10T16:43:29.476Z,5.40
2023-01-10T16:46:00.372Z,5.70
2023-01-10T16:48:33.493Z,6.00
2023-01-10T16:51:17.558Z,5.30
2023-01-10T16:53:46.034Z,5.30
2023-01-10T16:56:22.699Z,5.40
2023-01-10T16:58:51.095Z,5.50
2023-01-10T17:01:24.297Z,5.20
2023-01-10T17:03:53.147Z,5.20
2023-01-10T17:11:21.633Z,5.20
2023-01-10T17:13:49.035Z,5.30
2023-01-10T17:21:21.315Z,5.30
2023-01-10T17:23:49.340Z,5.10
2023-01-10T17:26:19.127Z,5.00
2023-01-10T17:28:48.435Z,5.10
2023-01-10T17:31:17.448Z,5.40
2023-01-10T17:38:39.474Z,5.10
2023-01-10T17:46:05.822Z,5.30
2023-01-10T17:48:34.670Z,5.40
2023-01-10T17:51:03.422Z,5.20
2023-01-10T18:05:55.607Z,5.30
2023-01-10T18:08:23.630Z,5.40
2023-01-10T18:13:20.750Z,5.30
2023-01-10T18:15:49.877Z,5.20
2023-01-10T18:20:46.281Z,5.30
2023-01-10T18:23:25.252Z,5.10
2023-01-10T18:31:18.445Z,5.20
2023-01-10T18:33:46.965Z,5.10
2023-01-10T18:36:34.833Z,5.40
2023-01-10T18:39:03.645Z,5.20
2023-01-10T18:41:31.514Z,5.20
2023-01-10T18:43:58.512Z,5.00
2023-01-10T18:46:25.556Z,5.20
2023-01-10T18:48:53.115Z,5.30
2023-01-10T19:01:19.640Z,5.20
2023-01-10T19:03:46.996Z,5.20
2023-01-10T19:06:16.958Z,5.20
2023-01-10T19:08:45.985Z,5.20
2023-01-10T19:11:16.429Z,5.20
2023-01-10T19:13:45.355Z,5.20
2023-01-10T19:16:22.780Z,5.20
2023-01-10T19:18:59.051Z,5.00
2023-01-10T19:21:27.941Z,5.10
2023-01-10T19:23:56.547Z,5.20
2023-01-10T19:26:24.791Z,5.20
2023-01-10T19:28:52.433Z,5.10
2023-01-10T19:31:23.459Z,5.20
2023-01-10T19:36:20.170Z,5.10
2023-01-10T19:43:43.034Z,5.20
2023-01-10T19:46:12.901Z,5.20
2023-01-10T19:51:10.500Z,5.20
2023-01-10T19:53:47.404Z,5.20
2023-01-10T19:56:19.683Z,5.10
2023-01-10T19:58:48.296Z,5.10
2023-01-10T20:01:22.685Z,5.20
2023-01-10T20:03:49.752Z,5.10
2023-01-10T20:06:21.856Z,5.10
2023-01-10T20:11:18.071Z,5.20
2023-01-10T20:16:15.167Z,5.30
2023-01-10T20:18:42.852Z,5.20
2023-01-10T20:21:12.647Z,5.20
2023-01-10T20:23:40.940Z,5.20
2023-01-10T20:26:16.745Z,5.20
2023-01-10T20:28:45.389Z,5.30
2023-01-10T20:31:19.959Z,5.20
2023-01-10T20:33:47.266Z,5.20
2023-01-10T20:36:17.700Z,5.10
2023-01-10T20:41:15.550Z,5.30
2023-01-10T20:46:20.990Z,5.20
2023-01-10T20:51:20.707Z,5.20
2023-01-10T20:54:08.516Z,5.20
2023-01-10T20:56:56.644Z,5.20
2023-01-10T21:07:07.105Z,5.20
2023-01-10T21:29:34.791Z,5.00
